Date,TemperatureHighF,TemperatureAvgF,TemperatureLowF,DewpointHighF,DewpointAvgF,DewpointLowF,HumidityHigh,HumidityAvg,HumidityLow,PressureMaxIn,PressureMinIn,WindSpeedMaxMPH,WindSpeedAvgMPH,GustSpeedMaxMPH,PrecipitationSumIn
2013-4-1,47.6,40.6,33.3,40.4,25.0,14.6,84,55,36,30.07,29.71,15,4,15,0.00
2013-4-2,44.1,33.6,21.8,19.5,16.4,13.1,76,50,32,30.23,30.07,16,2,16,0.00
2013-4-3,46.8,34.0,20.2,19.8,15.7,12.7,81,49,29,30.40,30.23,16,1,16,0.00
2013-4-4,53.7,39.5,28.4,26.4,18.0,14.0,64,44,23,30.37,29.96,9,1,0,0.00
2013-4-5,58.2,43.2,27.8,34.4,25.7,20.8,83,54,28,30.13,29.93,15,2,15,0.00
2013-4-6,61.8,46.1,30.3,24.3,20.7,16.1,63,39,19,30.24,29.90,12,2,12,0.00
2013-4-7,72.7,62.8,52.9,48.2,40.3,20.4,67,44,27,29.94,29.82,20,3,20,0.00
2013-4-8,72.6,62.4,49.9,53.1,50.2,45.1,88,66,46,29.94,29.82,16,2,16,0.00
2013-4-9,82.1,67.3,52.2,58.8,53.9,49.6,93,65,39,30.03,29.84,18,2,18,0.00
2013-4-10,83.0,70.4,59.5,64.2,59.0,55.1,90,68,50,29.89,29.72,24,2,25,0.00
2013-4-11,68.7,61.6,58.0,63.5,58.3,54.5,96,89,80,29.81,29.48,12,1,12,0.55
2013-4-12,59.6,48.9,42.7,58.6,43.8,33.4,97,83,67,29.86,29.42,18,3,18,0.27
2013-4-13,53.8,44.9,36.6,38.2,35.6,32.8,86,70,53,30.02,29.85,18,3,18,0.00
2013-4-14,67.3,50.1,34.2,43.4,37.7,31.9,93,66,38,30.10,29.89,11,1,0,0.00
2013-4-15,71.0,61.0,48.1,54.5,48.6,39.5,81,64,51,29.98,29.87,14,2,14,0.00
2013-4-16,78.8,63.5,56.1,66.0,56.5,50.3,97,79,56,30.12,29.92,18,2,18,0.81
2013-4-17,67.9,59.5,54.0,61.3,56.6,52.1,97,90,79,30.17,29.95,13,1,13,0.04
2013-4-18,86.5,71.4,58.4,64.8,57.9,53.1,95,67,33,29.98,29.58,18,3,18,0.00
2013-4-19,74.4,53.2,40.3,60.3,42.9,30.9,94,69,49,29.93,28.83,20,5,20,0.34
2013-4-20,47.1,40.3,33.1,33.1,28.8,24.1,92,65,43,30.42,29.93,19,3,19,0.04
2013-4-21,55.1,42.9,29.3,31.3,26.5,23.1,86,56,30,30.58,30.42,9,1,0,0.00
2013-4-22,70.2,54.4,40.0,43.5,34.2,24.2,60,47,30,30.42,30.16,10,1,0,0.00
2013-4-23,72.0,59.9,45.1,49.1,39.6,30.1,61,48,34,30.17,29.88,12,1,12,0.00
2013-4-24,63.5,52.2,34.3,55.4,45.1,32.8,96,78,54,30.19,29.74,23,3,23,0.64
2013-4-25,55.6,43.6,30.6,39.8,33.6,25.7,97,71,43,30.39,30.19,16,2,16,0.00
2013-4-26,62.4,47.3,30.2,39.5,32.7,28.0,93,62,31,30.49,30.36,10,0,0,0.00
2013-4-27,72.5,56.9,39.4,45.6,37.6,31.8,83,53,24,30.37,30.09,10,1,0,0.00
2013-4-28,62.8,57.2,53.3,59.0,53.8,45.1,97,89,65,30.09,29.82,10,1,0,0.72
2013-4-29,63.8,58.5,52.7,59.2,55.8,51.1,98,91,76,29.98,29.86,7,0,0,0.01
2013-4-30,77.8,62.4,47.3,59.3,53.4,46.5,98,75,46,30.07,29.97,9,1,0,0.00